Time;durP1;ratioP1;P1;durP2;ratioP2;P2;SDS_P1;SDS_P2;PMS_P1;PMS_P2;Temp;Humidity;BMP_temperature;BMP_pressure;BME280_temperature;BME280_humidity;BME280_pressure;Samples;Min_cycle;Max_cycle;Signal;HPM_P1;HPM_P2
2022/08/10 00:02:40;;;;;;;6.15;2.38;;;;;;;20.09;51.65;100444.19;5026888;28;20049;-89
2022/08/10 00:05:06;;;;;;;5.53;2.15;;;;;;;20.03;51.76;100463.06;5027551;28;20042;-88
2022/08/10 00:07:32;;;;;;;3.33;2.22;;;;;;;20.01;52.03;100454.34;5083133;28;20061;-88
2022/08/10 00:09:58;;;;;;;3.95;2.10;;;;;;;19.93;52.13;100459.63;5082981;28;20390;-88
2022/08/10 00:12:23;;;;;;;3.05;2.05;;;;;;;19.91;52.32;100450.09;5024914;28;20045;-88
2022/08/10 00:14:49;;;;;;;2.67;2.10;;;;;;;19.91;52.27;100455.72;5023247;28;20045;-81
2022/08/10 00:17:14;;;;;;;4.22;2.00;;;;;;;19.90;52.37;100459.78;5007240;28;20149;-81
2022/08/10 00:19:40;;;;;;;4.55;2.45;;;;;;;19.85;52.41;100452.06;5007039;28;20038;-81
2022/08/10 00:22:05;;;;;;;4.65;2.03;;;;;;;19.79;53.16;100454.03;5077014;28;20107;-81
2022/08/10 00:24:31;;;;;;;3.72;2.45;;;;;;;19.73;52.95;100456.00;5010720;28;20129;-81
2022/08/10 00:26:56;;;;;;;5.32;2.33;;;;;;;19.70;53.09;100451.31;5012030;28;20042;-81
2022/08/10 00:29:22;;;;;;;5.45;2.30;;;;;;;19.71;53.38;100458.50;5093162;28;20034;-82
2022/08/10 00:31:47;;;;;;;7.75;2.35;;;;;;;19.64;54.01;100456.88;5015890;28;20503;-82
2022/08/10 00:34:13;;;;;;;3.50;2.25;;;;;;;19.52;54.39;100467.22;5009984;28;20384;-88
2022/08/10 00:36:39;;;;;;;3.33;2.10;;;;;;;19.48;54.41;100469.44;5009858;28;20042;-88
2022/08/10 00:39:04;;;;;;;2.40;2.10;;;;;;;19.43;54.25;100458.88;5010024;28;20449;-88
2022/08/10 00:41:30;;;;;;;4.32;2.47;;;;;;;19.35;54.88;100459.72;5089839;28;20034;-89
2022/08/10 00:43:55;;;;;;;4.97;2.25;;;;;;;19.23;55.60;100464.41;5023221;28;20046;-88
2022/08/10 00:46:24;;;;;;;4.72;2.30;;;;;;;19.20;55.55;100459.75;5079527;28;20046;-89
2022/08/10 00:48:49;;;;;;;5.28;2.47;;;;;;;19.21;55.36;100458.47;5094746;28;20042;-88
2022/08/10 00:51:15;;;;;;;5.65;2.20;;;;;;;19.18;55.47;100451.03;5074147;28;20051;-88
2022/08/10 00:53:40;;;;;;;3.53;2.20;;;;;;;19.16;55.70;100459.19;5077363;28;20119;-81
2022/08/10 00:56:06;;;;;;;4.70;2.40;;;;;;;19.16;55.64;100452.78;5021075;28;20037;-81
2022/08/10 00:58:33;;;;;;;3.35;2.30;;;;;;;19.12;55.80;100452.97;5076782;28;20132;-83
2022/08/10 01:00:58;;;;;;;4.05;2.15;;;;;;;19.14;55.91;100455.28;5079362;28;20542;-81
2022/08/10 01:03:24;;;;;;;6.10;2.33;;;;;;;19.08;56.48;100453.19;5008439;28;20125;-81
2022/08/10 01:06:28;;;;;;;3.42;2.08;;;;;;;19.03;56.41;100450.25;5013494;28;20045;-81
2022/08/10 01:09:05;;;;;;;;;;;;;;;18.96;56.89;100456.28;5021345;28;20461;-81
2022/08/10 01:11:34;;;;;;;4.88;2.45;;;;;;;18.91;57.04;100471.78;5086476;27;19917;-89
2022/08/10 01:14:26;;;;;;;4.60;2.42;;;;;;;18.89;57.37;100465.06;5077493;28;20049;-90
2022/08/10 01:16:56;;;;;;;5.63;2.33;;;;;;;18.80;57.51;100465.97;5014151;28;20555;-90
2022/08/10 01:19:40;;;;;;;3.75;2.17;;;;;;;18.80;57.73;100468.00;5078354;28;20054;-89
2022/08/10 01:22:12;;;;;;;6.70;2.30;;;;;;;18.71;58.29;100474.47;5008934;28;20612;-89
2022/08/10 01:24:49;;;;;;;4.75;2.40;;;;;;;18.64;58.54;100470.00;5010680;28;20084;-88
2022/08/10 01:27:47;;;;;;;3.83;2.10;;;;;;;18.59;58.75;100469.91;5018667;28;20064;-88
2022/08/10 01:30:13;;;;;;;3.15;2.05;;;;;;;18.55;58.94;100478.53;5019660;28;20044;-88
2022/08/10 01:33:00;;;;;;;4.78;2.35;;;;;;;18.50;59.17;100478.38;5008989;28;20107;-81
2022/08/10 01:35:35;;;;;;;5.22;2.33;;;;;;;18.49;59.16;100476.81;5086818;28;20054;-81
2022/08/10 01:38:08;;;;;;;5.32;2.53;;;;;;;18.41;59.77;100473.59;5080736;28;20448;-81
2022/08/10 01:40:37;;;;;;;3.42;2.22;;;;;;;18.39;59.96;100470.50;5018385;28;20128;-81
2022/08/10 01:43:08;;;;;;;3.90;2.10;;;;;;;18.34;60.22;100473.97;5076879;28;20513;-81
2022/08/10 01:45:37;;;;;;;4.65;2.60;;;;;;;18.29;61.01;100476.66;5077968;28;20121;-81
2022/08/10 01:50:52;;;;;;;3.90;2.38;;;;;;;18.18;61.45;100482.84;5065874;28;20062;-81
2022/08/10 01:53:21;;;;;;;2.60;2.13;;;;;;;18.13;61.35;100472.25;5077058;28;20121;-81
2022/08/10 01:55:49;;;;;;;4.90;2.40;;;;;;;18.12;61.75;100477.09;5088527;28;20084;-81
2022/08/10 01:58:17;;;;;;;3.55;2.30;;;;;;;18.04;62.01;100469.50;5084848;28;20122;-81
2022/08/10 02:00:44;;;;;;;4.80;2.72;;;;;;;18.03;62.19;100479.97;5062679;28;20124;-82
2022/08/10 02:03:11;;;;;;;4.80;2.53;;;;;;;17.98;62.55;100468.63;5076294;28;20096;-81
2022/08/10 02:05:38;;;;;;;5.40;2.58;;;;;;;17.98;62.59;100477.03;5064782;28;20157;-82
2022/08/10 02:08:05;;;;;;;4.95;2.60;;;;;;;17.97;62.73;100472.69;5079164;28;20121;-82
2022/08/10 02:10:31;;;;;;;5.65;2.72;;;;;;;17.95;62.95;100473.19;5073877;28;20087;-90
2022/08/10 02:12:57;;;;;;;3.78;2.33;;;;;;;17.87;63.42;100471.97;5077404;28;20048;-90
2022/08/10 02:15:24;;;;;;;4.18;2.28;;;;;;;17.81;63.79;100471.06;5011020;28;20037;-90
2022/08/10 02:17:58;;;;;;;4.40;2.55;;;;;;;17.81;63.88;100475.88;5082599;28;20084;-89
2022/08/10 02:20:26;;;;;;;4.95;2.53;;;;;;;17.81;63.57;100479.47;5080963;28;20041;-89
2022/08/10 02:22:55;;;;;;;5.03;2.50;;;;;;;17.75;64.24;100475.00;5084469;28;20080;-89
2022/08/10 02:25:23;;;;;;;6.22;2.63;;;;;;;17.74;64.32;100470.63;5009975;28;20042;-89
2022/08/10 02:27:49;;;;;;;4.38;2.65;;;;;;;17.73;64.63;100469.06;5016211;28;20120;-83
2022/08/10 02:30:15;;;;;;;3.95;2.40;;;;;;;17.74;64.32;100473.44;5076802;28;20034;-82
2022/08/10 02:32:41;;;;;;;5.07;2.53;;;;;;;17.77;64.23;100481.69;5089433;28;20042;-82
2022/08/10 02:35:10;;;;;;;6.40;2.60;;;;;;;17.70;64.93;100471.59;5008419;28;20054;-82
2022/08/10 02:37:38;;;;;;;3.47;2.40;;;;;;;17.66;64.83;100475.81;5081547;28;20038;-82
2022/08/10 02:40:04;;;;;;;3.33;2.38;;;;;;;17.63;65.11;100471.91;5076213;28;20176;-82
2022/08/10 02:42:45;;;;;;;4.00;2.58;;;;;;;17.60;65.66;100477.72;5008004;28;20121;-82
2022/08/10 02:45:19;;;;;;;6.05;2.78;;;;;;;17.57;66.06;100479.44;5011655;28;20041;-82
2022/08/10 02:48:08;;;;;;;5.05;2.60;;;;;;;17.62;65.67;100476.00;5078160;28;20559;-89
2022/08/10 02:50:39;;;;;;;4.43;2.55;;;;;;;17.59;65.98;100487.41;5075600;28;20107;-90
2022/08/10 02:53:34;;;;;;;3.83;2.40;;;;;;;17.55;66.02;100481.91;5016320;28;20130;-89
2022/08/10 02:56:09;;;;;;;4.07;2.38;;;;;;;17.51;66.25;100475.69;5008996;28;20060;-90
2022/08/10 02:58:39;;;;;;;4.18;2.67;;;;;;;17.57;66.22;100484.25;5010757;28;20030;-90
2022/08/10 03:01:08;;;;;;;5.07;2.80;;;;;;;17.57;66.25;100489.84;5088369;28;20495;-90
2022/08/10 03:03:41;;;;;;;3.75;2.40;;;;;;;17.59;66.41;100482.53;5087322;28;20517;-90
2022/08/10 03:06:10;;;;;;;4.18;2.50;;;;;;;17.59;66.27;100493.75;5085771;28;20387;-83
2022/08/10 03:08:38;;;;;;;4.65;2.33;;;;;;;17.61;66.32;100496.88;5089711;28;20048;-82
2022/08/10 03:11:05;;;;;;;5.00;2.75;;;;;;;17.61;66.12;100490.50;5085547;28;20042;-82
2022/08/10 03:13:31;;;;;;;4.70;2.45;;;;;;;17.64;66.31;100500.75;5086247;28;20121;-82
2022/08/10 03:16:00;;;;;;;6.00;2.90;;;;;;;17.68;66.33;100496.53;5077108;28;20120;-82
2022/08/10 03:18:26;;;;;;;4.22;2.60;;;;;;;17.69;66.26;100502.91;5080109;28;20112;-82
2022/08/10 03:20:52;;;;;;;5.15;2.60;;;;;;;17.67;66.39;100497.78;5076270;28;20782;-82
2022/08/10 03:23:23;;;;;;;3.72;2.47;;;;;;;17.73;66.34;100502.75;5076569;28;20041;-82
2022/08/10 03:25:50;;;;;;;4.72;2.80;;;;;;;17.69;66.54;100498.09;5074462;28;20057;-90
2022/08/10 03:28:16;;;;;;;5.20;2.90;;;;;;;17.69;66.74;100506.50;5075017;28;20049;-90
2022/08/10 03:30:42;;;;;;;5.18;2.50;;;;;;;17.67;66.76;100494.97;5075489;28;20030;-90
2022/08/10 03:33:08;;;;;;;4.95;2.72;;;;;;;17.65;66.75;100486.25;5077715;28;20396;-89
2022/08/10 03:35:34;;;;;;;3.92;2.70;;;;;;;17.66;66.63;100492.66;5088015;28;20036;-90
2022/08/10 03:38:00;;;;;;;5.43;2.80;;;;;;;17.73;66.43;100500.72;5073167;28;20419;-89
2022/08/10 03:40:27;;;;;;;4.30;2.70;;;;;;;17.67;66.76;100500.59;5063494;28;20037;-90
2022/08/10 03:42:55;;;;;;;5.82;2.50;;;;;;;17.65;66.87;100505.91;5089506;28;20623;-90
2022/08/10 03:45:23;;;;;;;4.10;2.55;;;;;;;17.63;67.08;100505.59;5014137;28;20073;-83
2022/08/10 03:47:49;;;;;;;7.10;2.72;;;;;;;17.64;67.21;100504.34;5079748;28;20077;-81
2022/08/10 03:50:15;;;;;;;7.50;3.08;;;;;;;17.57;68.87;100507.50;5089696;28;20042;-82
2022/08/10 03:52:41;;;;;;;6.85;2.67;;;;;;;17.54;68.93;100510.44;5077667;28;20054;-82
2022/08/10 03:55:07;;;;;;;5.07;2.47;;;;;;;17.59;68.16;100515.44;5007946;28;20927;-81
2022/08/10 03:57:32;;;;;;;6.15;2.50;;;;;;;17.60;68.04;100531.00;5087468;28;20045;-82
2022/08/10 03:59:58;;;;;;;4.70;2.65;;;;;;;17.61;67.57;100519.31;5083534;28;20079;-82
2022/08/10 04:02:24;;;;;;;4.25;2.53;;;;;;;17.67;67.51;100516.66;5011616;28;20033;-82
2022/08/10 04:04:50;;;;;;;5.25;2.58;;;;;;;17.69;66.75;100517.72;5080610;28;20457;-89
2022/08/10 04:07:15;;;;;;;5.65;2.70;;;;;;;17.74;66.99;100538.75;5094303;28;20053;-89
2022/08/10 04:09:41;;;;;;;3.65;2.58;;;;;;;17.67;67.09;100523.03;5030914;28;20038;-89
2022/08/10 04:12:06;;;;;;;4.28;2.53;;;;;;;17.69;67.04;100534.56;5030898;28;20520;-89
2022/08/10 04:14:32;;;;;;;6.15;2.90;;;;;;;17.73;67.25;100536.41;5030958;28;20050;-89
2022/08/10 04:16:57;;;;;;;7.55;2.95;;;;;;;17.75;67.34;100540.31;5021113;28;20050;-89
2022/08/10 04:19:23;;;;;;;4.40;2.85;;;;;;;17.78;67.33;100544.19;5085899;27;20042;-89
2022/08/10 04:22:12;;;;;;;5.55;2.83;;;;;;;17.81;67.37;100537.63;5026514;28;20042;-89
2022/08/10 04:24:38;;;;;;;4.93;2.50;;;;;;;17.67;68.26;100545.47;5097973;28;20155;-82
2022/08/10 04:27:04;;;;;;;4.05;2.42;;;;;;;17.62;69.03;100542.53;5105969;27;20108;-83
2022/08/10 04:29:29;;;;;;;4.00;2.85;;;;;;;17.65;68.71;100547.97;5016498;28;20171;-83
2022/08/10 04:31:58;;;;;;;7.05;2.72;;;;;;;17.63;68.75;100536.44;5010617;28;20115;-83
2022/08/10 04:34:25;;;;;;;5.00;2.90;;;;;;;17.74;68.06;100546.41;5087017;28;20142;-82
2022/08/10 04:36:52;;;;;;;4.30;2.50;;;;;;;17.76;68.28;100529.84;5087105;28;20123;-82
2022/08/10 04:39:18;;;;;;;5.75;2.85;;;;;;;17.77;68.30;100537.81;5085904;28;20037;-82
2022/08/10 04:41:43;;;;;;;5.50;3.00;;;;;;;17.86;68.19;100551.00;5073885;28;20494;-90
2022/08/10 04:44:09;;;;;;;5.82;2.80;;;;;;;17.85;68.09;100555.06;5013866;28;20401;-89
2022/08/10 04:46:34;;;;;;;5.40;2.70;;;;;;;17.80;68.59;100550.09;5067814;28;20048;-89
2022/08/10 04:49:00;;;;;;;5.88;2.65;;;;;;;17.82;69.03;100550.41;5086159;28;20034;-89
2022/08/10 04:51:25;;;;;;;3.53;2.75;;;;;;;17.87;68.61;100547.75;5019015;28;20287;-89
2022/08/10 04:53:51;;;;;;;5.50;3.15;;;;;;;17.95;68.81;100560.19;5077346;28;20476;-89
2022/08/10 04:56:19;;;;;;;4.63;2.83;;;;;;;17.95;68.22;100556.59;5096105;28;20538;-90
2022/08/10 04:58:46;;;;;;;5.85;2.70;;;;;;;17.99;68.47;100557.19;5097260;28;20053;-87
2022/08/10 05:01:12;;;;;;;4.38;2.90;;;;;;;17.96;68.36;100560.94;5080068;28;20041;-81
2022/08/10 05:03:38;;;;;;;6.45;2.83;;;;;;;18.05;68.12;100552.47;5096484;28;20052;-81
2022/08/10 05:06:03;;;;;;;5.82;2.80;;;;;;;18.15;67.29;100559.59;5028187;28;20048;-81
2022/08/10 05:08:29;;;;;;;5.90;3.00;;;;;;;18.14;67.38;100549.63;5096308;28;20045;-81
2022/08/10 05:10:54;;;;;;;6.32;2.70;;;;;;;18.16;67.83;100563.94;5090708;28;20073;-81
2022/08/10 05:13:20;;;;;;;7.03;3.08;;;;;;;18.18;67.91;100555.84;5077382;28;20057;-81
2022/08/10 05:15:47;;;;;;;4.13;2.83;;;;;;;18.18;68.52;100562.22;5061108;28;20069;-82
2022/08/10 05:18:13;;;;;;;5.95;2.80;;;;;;;18.13;68.96;100560.06;5009965;28;20046;-89
2022/08/10 05:20:41;;;;;;;4.53;2.90;;;;;;;18.11;69.21;100561.81;5009952;28;20077;-82
2022/08/10 05:23:06;;;;;;;8.38;2.80;;;;;;;17.99;69.92;100560.00;5009743;28;20046;-81
2022/08/10 05:25:42;;;;;;;6.10;3.00;;;;;;;18.01;69.83;100561.06;5095008;28;20065;-82
2022/08/10 05:28:10;;;;;;;8.07;3.00;;;;;;;18.04;69.90;100560.13;5077543;28;20042;-81
2022/08/10 05:30:35;;;;;;;3.85;2.72;;;;;;;18.05;69.48;100552.47;5077968;28;20585;-81
2022/08/10 05:33:01;;;;;;;5.28;2.80;;;;;;;18.16;70.11;100549.91;5009401;28;20133;-81
2022/08/10 05:35:29;;;;;;;6.57;3.00;;;;;;;18.42;69.13;100556.63;5009903;28;20033;-82
2022/08/10 05:37:57;;;;;;;4.65;2.80;;;;;;;18.72;67.79;100556.75;5060947;28;20123;-82
2022/08/10 05:40:23;;;;;;;4.43;2.63;;;;;;;19.12;65.93;100559.81;5009836;28;20140;-89
2022/08/10 05:42:49;;;;;;;5.47;2.90;;;;;;;19.28;63.78;100558.56;5077711;28;20491;-90
2022/08/10 05:45:19;;;;;;;7.05;3.13;;;;;;;19.47;63.06;100545.88;5077396;28;20065;-89
2022/08/10 05:47:45;;;;;;;4.93;2.60;;;;;;;19.65;62.64;100542.09;5080758;27;20049;-89
2022/08/10 05:50:11;;;;;;;10.13;2.92;;;;;;;19.94;61.21;100559.69;5020235;28;20517;-89
2022/08/10 05:52:41;;;;;;;7.20;2.60;;;;;;;20.07;60.98;100555.78;5085667;28;20042;-89
2022/08/10 05:55:07;;;;;;;7.80;3.05;;;;;;;20.26;59.94;100555.03;5061203;28;20128;-90
2022/08/10 05:57:35;;;;;;;5.47;2.88;;;;;;;20.39;59.27;100558.31;5077489;28;20038;-90
2022/08/10 06:00:06;;;;;;;6.13;2.70;;;;;;;20.24;59.68;100560.38;5009272;28;20150;-83
2022/08/10 06:02:43;;;;;;;6.18;2.80;;;;;;;20.33;60.29;100560.28;5057886;28;20045;-80
2022/08/10 06:05:16;;;;;;;4.32;2.80;;;;;;;20.59;59.31;100556.75;5077275;28;20054;-80
2022/08/10 06:07:47;;;;;;;8.82;3.17;;;;;;;20.77;58.22;100548.78;5077304;28;20107;-81
2022/08/10 06:10:17;;;;;;;8.38;2.78;;;;;;;20.97;58.29;100555.66;5097021;28;20065;-81
2022/08/10 06:12:47;;;;;;;4.88;2.92;;;;;;;21.16;58.14;100571.03;5039417;28;20041;-81
2022/08/10 06:15:14;;;;;;;4.75;3.17;;;;;;;21.20;58.30;100558.25;5081970;28;20104;-81
2022/08/10 06:17:40;;;;;;;5.75;2.50;;;;;;;21.49;57.64;100574.16;5028590;28;20044;-89
2022/08/10 06:20:06;;;;;;;5.57;2.72;;;;;;;21.68;56.69;100568.94;5028412;28;20041;-90
2022/08/10 06:22:32;;;;;;;8.25;3.08;;;;;;;21.80;55.42;100562.09;5093344;28;20044;-89
2022/08/10 06:25:01;;;;;;;8.18;2.80;;;;;;;21.64;55.43;100569.16;5096022;27;20425;-89
2022/08/10 06:27:27;;;;;;;4.13;2.65;;;;;;;21.61;55.35;100563.75;5087719;28;20119;-91
2022/08/10 06:29:53;;;;;;;6.40;3.00;;;;;;;21.77;55.25;100560.28;5037187;27;20129;-90
2022/08/10 06:32:24;;;;;;;5.07;3.20;;;;;;;21.91;55.44;100553.72;5104047;27;20042;-90
2022/08/10 06:34:57;;;;;;;3.65;2.78;;;;;;;21.92;54.69;100565.81;5021764;28;20054;-91
2022/08/10 06:37:30;;;;;;;7.45;3.38;;;;;;;21.94;54.44;100557.59;5085497;28;20137;-82
2022/08/10 06:39:56;;;;;;;5.60;2.80;;;;;;;22.04;54.31;100559.72;5077998;28;20498;-83
2022/08/10 06:42:31;;;;;;;4.43;2.55;;;;;;;22.08;53.77;100556.69;5028433;28;20106;-82
2022/08/10 06:44:58;;;;;;;5.28;2.97;;;;;;;22.24;53.56;100562.41;5075679;28;20060;-82
2022/08/10 06:47:54;;;;;;;3.90;2.60;;;;;;;22.35;52.98;100558.91;5008946;28;20049;-82
2022/08/10 06:50:26;;;;;;;4.70;2.60;;;;;;;22.42;53.22;100557.63;5014160;28;20057;-81
2022/08/10 06:52:53;;;;;;;5.97;2.90;;;;;;;22.61;52.00;100564.41;5008775;28;20129;-82
2022/08/10 06:55:20;;;;;;;5.13;3.08;;;;;;;22.76;51.81;100554.47;5007556;28;20046;-90
2022/08/10 06:57:46;;;;;;;12.13;3.50;;;;;;;22.77;51.41;100560.88;5008060;28;20041;-90
2022/08/10 07:00:13;;;;;;;6.50;2.70;;;;;;;22.98;50.55;100556.59;5013836;27;20038;-90
2022/08/10 07:02:51;;;;;;;5.97;2.97;;;;;;;23.24;49.74;100559.22;5115343;27;20042;-89
2022/08/10 07:05:26;;;;;;;4.38;2.60;;;;;;;23.30;49.48;100562.03;5136730;27;20377;-90
2022/08/10 07:07:54;;;;;;;5.93;2.78;;;;;;;23.31;49.48;100563.59;5095825;28;20510;-91
2022/08/10 07:10:21;;;;;;;7.80;2.70;;;;;;;23.47;48.61;100566.47;5082121;28;20205;-90
2022/08/10 07:12:48;;;;;;;7.47;2.83;;;;;;;23.27;49.36;100563.06;5099604;28;20072;-90
2022/08/10 07:15:14;;;;;;;4.43;2.60;;;;;;;23.60;48.06;100563.13;5115018;27;20051;-83
2022/08/10 07:17:39;;;;;;;6.35;2.75;;;;;;;23.50;48.37;100565.44;5115203;27;20076;-83
2022/08/10 07:20:08;;;;;;;6.00;2.92;;;;;;;23.68;48.58;100564.16;5098036;28;20462;-83
2022/08/10 07:22:35;;;;;;;5.20;2.60;;;;;;;23.99;48.54;100546.88;5115661;27;20045;-83
2022/08/10 07:25:01;;;;;;;6.95;2.55;;;;;;;24.20;47.90;100555.09;5112688;27;21118;-83
2022/08/10 07:27:28;;;;;;;6.28;2.58;;;;;;;24.08;47.71;100563.59;5085165;28;20077;-83
2022/08/10 07:29:54;;;;;;;5.07;2.80;;;;;;;24.13;47.19;100557.16;5017017;28;20049;-83
2022/08/10 07:32:21;;;;;;;5.47;2.63;;;;;;;24.12;47.34;100558.44;5088415;28;20041;-83
2022/08/10 07:34:49;;;;;;;5.57;2.63;;;;;;;24.36;46.12;100555.06;5085770;28;20075;-90
2022/08/10 07:37:15;;;;;;;5.38;2.58;;;;;;;24.37;46.23;100561.50;5085257;28;20044;-90
2022/08/10 07:39:43;;;;;;;5.93;2.88;;;;;;;24.55;46.18;100558.06;5019964;28;20033;-91
2022/08/10 07:42:10;;;;;;;3.55;2.50;;;;;;;24.40;45.92;100557.63;5083375;28;20403;-89
2022/08/10 07:44:41;;;;;;;6.22;3.00;;;;;;;24.60;46.25;100549.56;5083859;28;20064;-91
2022/08/10 07:47:10;;;;;;;6.15;2.85;;;;;;;24.83;46.21;100553.03;5078608;28;20518;-91
2022/08/10 07:49:37;;;;;;;20.33;3.58;;;;;;;25.10;45.83;100548.56;5024028;28;20451;-91
2022/08/10 07:52:14;;;;;;;4.13;2.72;;;;;;;25.23;44.44;100551.56;5083670;28;20042;-82
2022/08/10 07:54:49;;;;;;;8.07;2.95;;;;;;;24.98;45.32;100564.88;5059801;28;20034;-89
2022/08/10 07:57:27;;;;;;;4.95;2.63;;;;;;;25.37;45.56;100555.31;5073821;28;20070;-90
2022/08/10 07:59:59;;;;;;;8.35;2.92;;;;;;;25.55;44.38;100566.06;5084423;28;20086;-89
2022/08/10 08:02:47;;;;;;;6.45;2.80;;;;;;;25.75;43.60;100562.03;5083449;28;20514;-90
2022/08/10 08:05:13;;;;;;;5.07;2.55;;;;;;;26.18;42.42;100559.28;5015099;28;20504;-90
2022/08/10 08:07:40;;;;;;;5.45;2.60;;;;;;;26.23;42.86;100564.16;5014875;28;20034;-91
2022/08/10 08:10:07;;;;;;;3.47;2.28;;;;;;;26.11;41.86;100559.88;5015167;28;20050;-82
2022/08/10 08:12:34;;;;;;;4.07;2.22;;;;;;;26.31;41.82;100556.56;5092354;28;20049;-90
2022/08/10 08:15:00;;;;;;;5.22;2.60;;;;;;;26.21;41.51;100561.06;5093893;28;20402;-91
2022/08/10 08:17:26;;;;;;;7.55;2.80;;;;;;;26.40;41.22;100564.75;5008001;28;20229;-91
2022/08/10 08:19:53;;;;;;;4.68;2.55;;;;;;;26.57;41.52;100567.41;5027667;28;20692;-90
2022/08/10 08:22:19;;;;;;;7.45;2.58;;;;;;;26.51;41.08;100569.53;5018841;28;20180;-91
2022/08/10 08:24:46;;;;;;;8.45;2.50;;;;;;;26.75;40.31;100550.34;5079011;28;20521;-90
2022/08/10 08:27:15;;;;;;;10.32;2.70;;;;;;;27.04;40.74;100562.16;5095157;28;20054;-91
2022/08/10 08:29:42;;;;;;;6.60;2.75;;;;;;;27.04;40.29;100565.00;5075731;28;20046;-91
2022/08/10 08:32:08;;;;;;;6.30;2.45;;;;;;;27.08;39.66;100556.91;5015920;28;20116;-82
2022/08/10 08:34:36;;;;;;;5.35;2.47;;;;;;;27.17;39.37;100551.59;5090661;28;20480;-82
2022/08/10 08:37:03;;;;;;;14.35;2.58;;;;;;;27.42;38.02;100549.38;5073436;28;20030;-82
2022/08/10 08:39:35;;;;;;;3.20;2.63;;;;;;;27.41;39.02;100547.09;5015855;28;20052;-82
2022/08/10 08:42:43;;;;;;;6.97;2.60;;;;;;;28.00;37.89;100552.31;5019830;28;20045;-82
2022/08/10 08:45:09;;;;;;;6.88;2.30;;;;;;;28.00;36.81;100557.22;5083342;27;20045;-82
2022/08/10 08:48:11;;;;;;;6.65;2.22;;;;;;;28.01;36.94;100550.22;5098112;28;20029;-82
2022/08/10 08:50:58;;;;;;;3.25;2.08;;;;;;;28.27;36.05;100531.06;5034204;27;20041;-92
2022/08/10 08:53:32;;;;;;;3.70;2.55;;;;;;;28.64;34.85;100535.75;5082747;28;20052;-91
2022/08/10 08:56:12;;;;;;;6.43;2.40;;;;;;;28.84;34.21;100531.44;5022868;28;20049;-91
2022/08/10 08:58:58;;;;;;;3.63;2.28;;;;;;;29.14;33.43;100528.19;5086111;28;20049;-91
2022/08/10 09:02:01;;;;;;;6.70;2.65;;;;;;;28.89;34.32;100538.38;5103567;27;20041;-92
2022/08/10 09:04:45;;;;;;;6.97;2.55;;;;;;;28.44;35.35;100539.28;5033740;28;20057;-91
2022/08/10 09:07:40;;;;;;;7.70;2.35;;;;;;;28.78;34.59;100530.06;5035574;27;20498;-92
2022/08/10 09:10:42;;;;;;;8.80;2.45;;;;;;;28.90;35.37;100528.47;5078521;28;20077;-82
2022/08/10 09:13:38;;;;;;;6.00;2.33;;;;;;;28.81;33.44;100531.78;5015118;28;20057;-82
2022/08/10 09:16:14;;;;;;;5.10;2.00;;;;;;;28.68;34.09;100521.91;5025982;28;20450;-82
2022/08/10 09:19:02;;;;;;;6.63;2.17;;;;;;;28.61;34.32;100518.97;5041495;28;20042;-82
2022/08/10 09:22:02;;;;;;;6.50;1.80;;;;;;;28.55;33.39;100527.63;5065328;27;20066;-82
2022/08/10 09:24:58;;;;;;;4.72;1.90;;;;;;;28.14;33.28;100521.75;5023156;28;20041;-82
2022/08/10 09:28:08;;;;;;;3.05;2.08;;;;;;;28.09;34.55;100516.91;5038002;28;20384;-82
2022/08/10 09:30:43;;;;;;;5.88;2.10;;;;;;;28.57;34.11;100507.13;5040206;28;20110;-90
2022/08/10 09:33:14;;;;;;;4.35;1.98;;;;;;;29.10;33.96;100510.63;5053278;28;20408;-90
2022/08/10 09:35:51;;;;;;;4.95;2.80;;;;;;;29.46;33.12;100508.72;5060629;28;20064;-90
2022/08/10 09:38:46;;;;;;;8.90;2.10;;;;;;;29.46;33.02;100502.22;5088622;28;20049;-92
2022/08/10 09:41:31;;;;;;;6.22;2.08;;;;;;;29.48;32.41;100506.06;5009922;28;20042;-91
2022/08/10 09:44:26;;;;;;;6.63;2.70;;;;;;;29.38;34.08;100499.31;5010021;28;20518;-91
2022/08/10 09:48:03;;;;;;;6.60;2.10;;;;;;;29.48;34.77;100503.19;5016920;28;20651;-82
2022/08/10 09:50:47;;;;;;;5.25;3.25;;;;;;;29.22;33.45;100503.31;5018461;28;20104;-82
2022/08/10 09:53:12;;;;;;;3.53;1.95;;;;;;;28.52;33.90;100511.63;5029873;28;20518;-82
2022/08/10 09:55:56;;;;;;;4.40;2.10;;;;;;;28.72;33.59;100493.06;5042492;28;20075;-83
2022/08/10 09:58:57;;;;;;;4.25;1.98;;;;;;;28.53;33.52;100513.16;5009694;28;20493;-83
2022/08/10 10:01:33;;;;;;;4.32;2.10;;;;;;;28.83;33.41;100489.19;5049539;28;20048;-83
2022/08/10 10:04:08;;;;;;;4.78;2.10;;;;;;;29.41;32.49;100501.03;5082656;28;20416;-83
2022/08/10 10:06:44;;;;;;;6.40;1.83;;;;;;;28.69;33.72;100489.22;5097528;28;20044;-91
2022/08/10 10:09:14;;;;;;;3.72;1.80;;;;;;;28.81;32.52;100508.94;5106415;28;20052;-91
2022/08/10 10:12:05;;;;;;;4.32;1.90;;;;;;;28.62;32.71;100497.66;5109174;28;20138;-91
2022/08/10 10:18:01;;;;;;;4.32;1.98;;;;;;;27.44;34.52;100500.41;5112868;28;20039;-92
2022/08/10 10:20:48;;;;;;;5.00;2.00;;;;;;;27.61;34.36;100504.56;5091577;28;20083;-92
2022/08/10 10:23:20;;;;;;;5.75;1.80;;;;;;;27.48;33.94;100495.97;5093493;28;20075;-82
2022/08/10 10:26:05;;;;;;;2.75;1.83;;;;;;;27.75;34.68;100497.56;5110153;28;20043;-91
2022/08/10 10:28:40;;;;;;;4.25;1.50;;;;;;;28.00;33.01;100488.81;5097982;28;20048;-91
2022/08/10 10:31:15;;;;;;;6.68;2.10;;;;;;;28.46;32.50;100473.13;5100975;28;20054;-92
2022/08/10 10:34:01;;;;;;;3.53;2.03;;;;;;;28.65;33.89;100471.66;5101446;28;20536;-90
2022/08/10 10:36:28;;;;;;;5.03;1.80;;;;;;;29.40;31.47;100468.06;5099235;28;20051;-91
2022/08/10 10:38:56;;;;;;;2.97;1.90;;;;;;;29.55;30.44;100473.94;5110121;28;20034;-92
2022/08/10 10:41:39;;;;;;;4.00;1.90;;;;;;;29.71;32.65;100471.19;5111262;28;20047;-91
2022/08/10 10:44:08;;;;;;;;;;;;;;;29.68;31.83;100472.31;5111094;28;20058;-83
2022/08/10 10:47:01;;;;;;;8.23;2.33;;;;;;;29.47;31.91;100475.97;5111934;28;20006;-83
2022/08/10 10:49:42;;;;;;;5.68;2.00;;;;;;;28.83;30.21;100463.50;5111118;28;20491;-83
2022/08/10 10:52:19;;;;;;;4.68;2.03;;;;;;;29.26;30.21;100469.47;5111809;28;20496;-83
2022/08/10 10:55:08;;;;;;;5.25;2.17;;;;;;;29.58;30.34;100452.81;5110710;28;20135;-83
2022/08/10 10:57:44;;;;;;;4.85;2.00;;;;;;;29.86;29.33;100457.00;5093544;28;20130;-83
2022/08/10 11:00:10;;;;;;;5.95;2.22;;;;;;;30.45;29.00;100455.84;5110428;28;20133;-83
2022/08/10 11:02:57;;;;;;;5.38;2.55;;;;;;;30.06;30.13;100448.38;5110416;28;20485;-83
2022/08/10 11:05:33;;;;;;;4.20;2.13;;;;;;;30.22;28.30;100460.66;5110426;28;20388;-91
2022/08/10 11:08:14;;;;;;;5.43;2.22;;;;;;;29.50;29.32;100448.34;5110478;28;20061;-90
2022/08/10 11:11:00;;;;;;;8.93;2.50;;;;;;;29.60;32.08;100453.00;5106032;28;20040;-90
2022/08/10 11:14:04;;;;;;;10.73;2.30;;;;;;;29.65;29.99;100457.81;5090023;28;20051;-91
2022/08/10 11:16:43;;;;;;;5.65;2.28;;;;;;;29.83;30.19;100447.44;5105038;28;20057;-90
2022/08/10 11:19:27;;;;;;;8.23;2.50;;;;;;;30.24;29.43;100449.44;5110902;28;20049;-91
2022/08/10 11:22:22;;;;;;;5.00;2.13;;;;;;;30.55;30.12;100436.81;5112482;28;20496;-92
2022/08/10 11:24:57;;;;;;;4.40;2.38;;;;;;;30.99;30.35;100433.88;5109702;28;20040;-83
2022/08/10 11:27:40;;;;;;;8.32;2.40;;;;;;;31.41;29.37;100437.91;5111541;28;20048;-83
2022/08/10 11:30:09;;;;;;;3.90;2.40;;;;;;;31.19;28.22;100446.50;5110171;28;20058;-83
2022/08/10 11:32:46;;;;;;;2.95;2.10;;;;;;;30.92;28.96;100452.56;5112906;28;20106;-83
2022/08/10 11:35:18;;;;;;;5.22;2.10;;;;;;;30.91;28.66;100444.53;5091873;27;20524;-83
2022/08/10 11:38:13;;;;;;;3.53;2.60;;;;;;;31.05;27.56;100445.94;5126673;27;20046;-83
2022/08/10 11:41:00;;;;;;;4.03;2.50;;;;;;;31.38;27.58;100452.63;5104450;27;20508;-83
2022/08/10 11:43:28;;;;;;;3.40;2.53;;;;;;;30.54;28.00;100440.97;5126777;27;20045;-91
2022/08/10 11:46:02;;;;;;;2.70;2.08;;;;;;;29.91;29.01;100442.56;5092892;28;20456;-91
2022/08/10 11:48:39;;;;;;;7.95;2.67;;;;;;;29.85;30.78;100441.91;5098064;28;20413;-91
2022/08/10 11:51:10;;;;;;;5.88;2.45;;;;;;;30.50;28.66;100437.72;5123118;28;20051;-91
2022/08/10 11:53:50;;;;;;;4.85;2.50;;;;;;;30.60;28.00;100431.47;5089439;28;20080;-91
2022/08/10 11:56:24;;;;;;;4.65;2.40;;;;;;;30.76;29.43;100435.91;5089077;28;20551;-90
2022/08/10 12:01:35;;;;;;;4.78;2.30;;;;;;;30.09;28.11;100440.75;5095054;28;20047;-82